Terminal Aerodrome Forecast
Issued by NWS Twin Cities, MN

Home | Current Version | Previous Version | Text Only | Print | Product List | Glossary On
Versions: 1 2 3 4 5 6 7 8 9 10 11 12 13 14 15 16 17 18 19
000
FTUS43 KMPX 260800 AAB
TAFSTC
TAF AMD
KSTC 260817Z 2608/2706 36006KT P6SM OVC020
     FM261000 01008KT 4SM BR OVC007
     FM261400 35010KT 6SM BR OVC009
     FM261800 34009KT P6SM OVC014=

USA.gov is the U.S. government's official web portal to all federal, state and local government web resources and services.